sensor_id;sensor_type;location;lat;lon;timestamp;P1;durP1;ratioP1;P2;durP2;ratioP2
49934;SDS011;39898;41.762;26.200;2022-09-09T00:01:52;7.45;;;2.55;;
49934;SDS011;39898;41.762;26.200;2022-09-09T00:04:28;6.38;;;2.22;;
49934;SDS011;39898;41.762;26.200;2022-09-09T00:09:55;7.38;;;2.20;;
49934;SDS011;39898;41.762;26.200;2022-09-09T00:15:05;7.18;;;2.90;;
49934;SDS011;39898;41.762;26.200;2022-09-09T00:18:25;13.35;;;3.45;;
49934;SDS011;39898;41.762;26.200;2022-09-09T00:23:00;10.10;;;2.95;;
49934;SDS011;39898;41.762;26.200;2022-09-09T00:26:14;12.82;;;4.03;;
49934;SDS011;39898;41.762;26.200;2022-09-09T00:28:23;8.05;;;4.05;;
49934;SDS011;39898;41.762;26.200;2022-09-09T00:30:53;4.88;;;3.25;;
49934;SDS011;39898;41.762;26.200;2022-09-09T00:38:33;7.95;;;3.10;;
49934;SDS011;39898;41.762;26.200;2022-09-09T00:41:14;14.77;;;3.25;;
49934;SDS011;39898;41.762;26.200;2022-09-09T00:43:57;4.32;;;3.08;;
49934;SDS011;39898;41.762;26.200;2022-09-09T00:55:16;9.80;;;4.13;;
49934;SDS011;39898;41.762;26.200;2022-09-09T00:57:48;4.80;;;3.47;;
49934;SDS011;39898;41.762;26.200;2022-09-09T01:00:22;10.88;;;3.55;;
49934;SDS011;39898;41.762;26.200;2022-09-09T01:06:00;9.57;;;3.67;;
49934;SDS011;39898;41.762;26.200;2022-09-09T01:11:00;8.00;;;3.10;;
49934;SDS011;39898;41.762;26.200;2022-09-09T01:13:29;11.23;;;4.10;;
49934;SDS011;39898;41.762;26.200;2022-09-09T01:16:01;9.30;;;4.32;;
49934;SDS011;39898;41.762;26.200;2022-09-09T01:18:31;8.30;;;3.90;;
49934;SDS011;39898;41.762;26.200;2022-09-09T01:26:46;8.90;;;3.10;;
49934;SDS011;39898;41.762;26.200;2022-09-09T01:29:15;6.75;;;3.47;;
49934;SDS011;39898;41.762;26.200;2022-09-09T01:31:56;11.32;;;3.25;;
49934;SDS011;39898;41.762;26.200;2022-09-09T01:34:25;7.25;;;3.55;;
49934;SDS011;39898;41.762;26.200;2022-09-09T01:37:06;11.18;;;3.78;;
49934;SDS011;39898;41.762;26.200;2022-09-09T01:42:03;6.95;;;3.95;;
49934;SDS011;39898;41.762;26.200;2022-09-09T01:44:32;12.18;;;4.55;;
49934;SDS011;39898;41.762;26.200;2022-09-09T01:47:02;16.00;;;4.63;;
49934;SDS011;39898;41.762;26.200;2022-09-09T01:49:29;9.27;;;4.43;;
49934;SDS011;39898;41.762;26.200;2022-09-09T01:51:57;8.43;;;4.35;;
49934;SDS011;39898;41.762;26.200;2022-09-09T01:54:25;10.30;;;4.00;;
49934;SDS011;39898;41.762;26.200;2022-09-09T01:57:06;13.63;;;4.00;;
49934;SDS011;39898;41.762;26.200;2022-09-09T01:59:48;15.48;;;4.50;;
49934;SDS011;39898;41.762;26.200;2022-09-09T02:02:35;8.93;;;4.57;;
49934;SDS011;39898;41.762;26.200;2022-09-09T02:05:21;12.88;;;3.90;;
49934;SDS011;39898;41.762;26.200;2022-09-09T02:08:14;6.82;;;4.00;;
49934;SDS011;39898;41.762;26.200;2022-09-09T02:13:37;11.20;;;4.40;;
49934;SDS011;39898;41.762;26.200;2022-09-09T02:16:22;5.82;;;4.30;;
49934;SDS011;39898;41.762;26.200;2022-09-09T02:18:53;10.95;;;4.22;;
49934;SDS011;39898;41.762;26.200;2022-09-09T02:21:27;9.68;;;4.07;;
49934;SDS011;39898;41.762;26.200;2022-09-09T02:23:57;9.52;;;4.63;;
49934;SDS011;39898;41.762;26.200;2022-09-09T02:26:26;11.32;;;4.90;;
49934;SDS011;39898;41.762;26.200;2022-09-09T02:28:54;10.65;;;5.07;;
49934;SDS011;39898;41.762;26.200;2022-09-09T02:31:24;8.75;;;4.43;;
49934;SDS011;39898;41.762;26.200;2022-09-09T02:33:53;11.60;;;4.97;;
49934;SDS011;39898;41.762;26.200;2022-09-09T02:36:24;8.52;;;4.57;;
49934;SDS011;39898;41.762;26.200;2022-09-09T02:38:53;6.78;;;4.55;;
49934;SDS011;39898;41.762;26.200;2022-09-09T02:41:20;7.45;;;4.03;;
49934;SDS011;39898;41.762;26.200;2022-09-09T02:43:52;5.90;;;3.85;;
49934;SDS011;39898;41.762;26.200;2022-09-09T02:49:02;10.30;;;3.90;;
49934;SDS011;39898;41.762;26.200;2022-09-09T02:57:08;11.18;;;5.15;;
49934;SDS011;39898;41.762;26.200;2022-09-09T02:59:37;13.88;;;4.32;;
49934;SDS011;39898;41.762;26.200;2022-09-09T03:02:05;10.48;;;5.15;;
49934;SDS011;39898;41.762;26.200;2022-09-09T03:04:32;11.80;;;5.37;;
49934;SDS011;39898;41.762;26.200;2022-09-09T03:06:59;8.13;;;5.53;;
49934;SDS011;39898;41.762;26.200;2022-09-09T03:09:25;12.40;;;4.50;;
49934;SDS011;39898;41.762;26.200;2022-09-09T03:11:52;14.15;;;5.25;;
49934;SDS011;39898;41.762;26.200;2022-09-09T03:14:21;14.48;;;4.97;;
49934;SDS011;39898;41.762;26.200;2022-09-09T03:16:51;10.23;;;5.80;;
49934;SDS011;39898;41.762;26.200;2022-09-09T03:19:18;14.73;;;6.93;;
49934;SDS011;39898;41.762;26.200;2022-09-09T03:21:46;7.45;;;4.47;;
49934;SDS011;39898;41.762;26.200;2022-09-09T03:24:13;20.13;;;5.50;;
49934;SDS011;39898;41.762;26.200;2022-09-09T03:26:40;9.50;;;4.38;;
49934;SDS011;39898;41.762;26.200;2022-09-09T03:29:11;9.85;;;5.13;;
49934;SDS011;39898;41.762;26.200;2022-09-09T03:31:39;8.32;;;4.10;;
49934;SDS011;39898;41.762;26.200;2022-09-09T03:34:09;9.98;;;5.00;;
49934;SDS011;39898;41.762;26.200;2022-09-09T03:36:36;15.52;;;4.85;;
49934;SDS011;39898;41.762;26.200;2022-09-09T03:39:03;26.27;;;4.65;;
49934;SDS011;39898;41.762;26.200;2022-09-09T03:41:30;8.05;;;4.25;;
49934;SDS011;39898;41.762;26.200;2022-09-09T03:43:56;17.25;;;4.72;;
49934;SDS011;39898;41.762;26.200;2022-09-09T03:46:24;7.15;;;4.72;;
49934;SDS011;39898;41.762;26.200;2022-09-09T03:48:51;7.50;;;3.95;;
49934;SDS011;39898;41.762;26.200;2022-09-09T03:51:21;9.77;;;4.60;;
49934;SDS011;39898;41.762;26.200;2022-09-09T03:53:48;15.27;;;5.05;;
49934;SDS011;39898;41.762;26.200;2022-09-09T03:56:15;10.73;;;5.40;;
49934;SDS011;39898;41.762;26.200;2022-09-09T03:58:41;9.07;;;6.07;;
49934;SDS011;39898;41.762;26.200;2022-09-09T04:01:09;17.80;;;4.95;;
49934;SDS011;39898;41.762;26.200;2022-09-09T04:03:44;7.63;;;5.18;;
49934;SDS011;39898;41.762;26.200;2022-09-09T04:06:12;19.10;;;6.20;;
49934;SDS011;39898;41.762;26.200;2022-09-09T04:08:41;7.78;;;4.60;;
49934;SDS011;39898;41.762;26.200;2022-09-09T04:11:08;7.15;;;3.72;;
49934;SDS011;39898;41.762;26.200;2022-09-09T04:13:36;11.98;;;4.47;;
49934;SDS011;39898;41.762;26.200;2022-09-09T04:16:05;12.80;;;5.95;;
49934;SDS011;39898;41.762;26.200;2022-09-09T04:18:33;10.80;;;5.13;;
49934;SDS011;39898;41.762;26.200;2022-09-09T04:21:00;10.00;;;4.82;;
49934;SDS011;39898;41.762;26.200;2022-09-09T04:23:27;14.38;;;4.30;;
49934;SDS011;39898;41.762;26.200;2022-09-09T04:25:56;9.52;;;4.45;;
49934;SDS011;39898;41.762;26.200;2022-09-09T04:28:25;9.50;;;4.63;;
49934;SDS011;39898;41.762;26.200;2022-09-09T04:30:53;9.02;;;3.95;;
49934;SDS011;39898;41.762;26.200;2022-09-09T04:33:20;8.95;;;4.32;;
49934;SDS011;39898;41.762;26.200;2022-09-09T04:35:48;8.88;;;4.35;;
49934;SDS011;39898;41.762;26.200;2022-09-09T04:38:16;6.30;;;3.88;;
49934;SDS011;39898;41.762;26.200;2022-09-09T04:40:46;17.93;;;4.37;;
49934;SDS011;39898;41.762;26.200;2022-09-09T04:43:14;6.22;;;3.72;;
49934;SDS011;39898;41.762;26.200;2022-09-09T04:45:41;9.90;;;3.90;;
49934;SDS011;39898;41.762;26.200;2022-09-09T04:48:09;10.43;;;4.68;;
49934;SDS011;39898;41.762;26.200;2022-09-09T04:50:38;7.78;;;4.25;;
49934;SDS011;39898;41.762;26.200;2022-09-09T04:53:05;10.27;;;3.60;;
49934;SDS011;39898;41.762;26.200;2022-09-09T04:55:32;7.53;;;4.10;;
49934;SDS011;39898;41.762;26.200;2022-09-09T04:58:04;15.38;;;4.20;;
49934;SDS011;39898;41.762;26.200;2022-09-09T05:00:35;7.45;;;3.38;;
49934;SDS011;39898;41.762;26.200;2022-09-09T05:03:03;9.25;;;4.45;;
49934;SDS011;39898;41.762;26.200;2022-09-09T05:05:31;8.13;;;4.13;;
49934;SDS011;39898;41.762;26.200;2022-09-09T05:08:04;6.47;;;3.25;;
49934;SDS011;39898;41.762;26.200;2022-09-09T05:10:32;9.13;;;4.03;;
49934;SDS011;39898;41.762;26.200;2022-09-09T05:12:59;7.80;;;4.07;;
49934;SDS011;39898;41.762;26.200;2022-09-09T05:15:26;11.77;;;4.15;;
49934;SDS011;39898;41.762;26.200;2022-09-09T05:17:56;25.83;;;5.05;;
49934;SDS011;39898;41.762;26.200;2022-09-09T05:20:26;13.55;;;5.22;;
49934;SDS011;39898;41.762;26.200;2022-09-09T05:22:54;9.97;;;3.60;;
49934;SDS011;39898;41.762;26.200;2022-09-09T05:25:22;9.68;;;3.90;;
49934;SDS011;39898;41.762;26.200;2022-09-09T05:27:52;6.15;;;3.38;;
49934;SDS011;39898;41.762;26.200;2022-09-09T05:30:20;8.88;;;4.25;;
49934;SDS011;39898;41.762;26.200;2022-09-09T05:32:48;8.82;;;3.95;;
49934;SDS011;39898;41.762;26.200;2022-09-09T05:35:15;6.93;;;3.15;;
49934;SDS011;39898;41.762;26.200;2022-09-09T05:37:44;11.40;;;3.72;;
49934;SDS011;39898;41.762;26.200;2022-09-09T05:40:12;11.15;;;3.15;;
49934;SDS011;39898;41.762;26.200;2022-09-09T05:42:39;3.65;;;2.63;;
49934;SDS011;39898;41.762;26.200;2022-09-09T05:45:06;5.38;;;2.80;;
49934;SDS011;39898;41.762;26.200;2022-09-09T05:50:01;6.05;;;2.67;;
49934;SDS011;39898;41.762;26.200;2022-09-09T05:52:28;20.55;;;3.85;;
49934;SDS011;39898;41.762;26.200;2022-09-09T05:54:55;3.92;;;2.75;;
49934;SDS011;39898;41.762;26.200;2022-09-09T05:57:23;6.32;;;3.17;;
49934;SDS011;39898;41.762;26.200;2022-09-09T05:59:49;3.15;;;2.45;;
49934;SDS011;39898;41.762;26.200;2022-09-09T06:02:16;11.32;;;3.47;;
49934;SDS011;39898;41.762;26.200;2022-09-09T06:04:43;8.55;;;3.25;;
49934;SDS011;39898;41.762;26.200;2022-09-09T06:07:10;5.90;;;3.30;;
49934;SDS011;39898;41.762;26.200;2022-09-09T06:09:36;9.77;;;2.92;;
49934;SDS011;39898;41.762;26.200;2022-09-09T06:12:03;6.82;;;2.80;;
49934;SDS011;39898;41.762;26.200;2022-09-09T06:14:30;7.25;;;2.33;;
49934;SDS011;39898;41.762;26.200;2022-09-09T06:16:57;8.27;;;3.05;;
49934;SDS011;39898;41.762;26.200;2022-09-09T06:19:23;6.93;;;3.25;;
49934;SDS011;39898;41.762;26.200;2022-09-09T06:21:52;5.63;;;3.58;;
49934;SDS011;39898;41.762;26.200;2022-09-09T06:24:19;4.50;;;2.63;;
49934;SDS011;39898;41.762;26.200;2022-09-09T06:26:46;13.98;;;3.55;;
49934;SDS011;39898;41.762;26.200;2022-09-09T06:29:13;11.68;;;3.03;;
49934;SDS011;39898;41.762;26.200;2022-09-09T06:31:39;5.95;;;3.05;;
49934;SDS011;39898;41.762;26.200;2022-09-09T06:34:07;6.47;;;2.83;;
49934;SDS011;39898;41.762;26.200;2022-09-09T06:36:36;10.80;;;2.97;;
49934;SDS011;39898;41.762;26.200;2022-09-09T06:39:04;9.00;;;3.33;;
49934;SDS011;39898;41.762;26.200;2022-09-09T06:41:39;8.77;;;2.72;;
49934;SDS011;39898;41.762;26.200;2022-09-09T06:44:06;8.23;;;3.17;;
49934;SDS011;39898;41.762;26.200;2022-09-09T06:46:33;6.25;;;3.00;;
49934;SDS011;39898;41.762;26.200;2022-09-09T06:49:02;4.93;;;3.00;;
49934;SDS011;39898;41.762;26.200;2022-09-09T06:51:33;6.95;;;2.72;;
49934;SDS011;39898;41.762;26.200;2022-09-09T06:54:02;7.07;;;2.50;;
49934;SDS011;39898;41.762;26.200;2022-09-09T06:56:33;14.38;;;4.07;;
49934;SDS011;39898;41.762;26.200;2022-09-09T06:59:04;3.17;;;2.00;;
49934;SDS011;39898;41.762;26.200;2022-09-09T07:01:32;6.78;;;2.08;;
49934;SDS011;39898;41.762;26.200;2022-09-09T07:04:01;7.55;;;2.58;;
49934;SDS011;39898;41.762;26.200;2022-09-09T07:06:34;4.88;;;1.80;;
49934;SDS011;39898;41.762;26.200;2022-09-09T07:09:04;3.95;;;2.20;;
49934;SDS011;39898;41.762;26.200;2022-09-09T07:11:33;8.10;;;1.88;;
49934;SDS011;39898;41.762;26.200;2022-09-09T07:14:03;3.40;;;1.80;;
49934;SDS011;39898;41.762;26.200;2022-09-09T07:16:30;4.03;;;1.88;;
49934;SDS011;39898;41.762;26.200;2022-09-09T07:19:00;8.90;;;1.77;;
49934;SDS011;39898;41.762;26.200;2022-09-09T07:21:29;6.00;;;2.15;;
49934;SDS011;39898;41.762;26.200;2022-09-09T07:23:57;7.28;;;1.85;;
49934;SDS011;39898;41.762;26.200;2022-09-09T07:26:25;3.80;;;1.67;;
49934;SDS011;39898;41.762;26.200;2022-09-09T07:28:54;6.05;;;2.40;;
49934;SDS011;39898;41.762;26.200;2022-09-09T07:31:23;3.25;;;1.80;;
49934;SDS011;39898;41.762;26.200;2022-09-09T07:33:52;4.50;;;2.00;;
49934;SDS011;39898;41.762;26.200;2022-09-09T07:36:23;2.77;;;1.80;;
49934;SDS011;39898;41.762;26.200;2022-09-09T07:39:00;4.43;;;2.20;;
49934;SDS011;39898;41.762;26.200;2022-09-09T07:41:31;5.10;;;1.60;;
49934;SDS011;39898;41.762;26.200;2022-09-09T07:44:12;6.35;;;1.98;;
49934;SDS011;39898;41.762;26.200;2022-09-09T07:46:41;5.50;;;1.88;;
49934;SDS011;39898;41.762;26.200;2022-09-09T07:49:08;5.03;;;1.70;;
49934;SDS011;39898;41.762;26.200;2022-09-09T07:51:37;4.03;;;1.55;;
49934;SDS011;39898;41.762;26.200;2022-09-09T07:54:06;6.15;;;1.77;;
49934;SDS011;39898;41.762;26.200;2022-09-09T07:56:35;8.18;;;1.67;;
49934;SDS011;39898;41.762;26.200;2022-09-09T07:59:05;5.07;;;1.40;;
49934;SDS011;39898;41.762;26.200;2022-09-09T08:01:34;4.15;;;1.40;;
49934;SDS011;39898;41.762;26.200;2022-09-09T08:04:13;6.50;;;1.42;;
49934;SDS011;39898;41.762;26.200;2022-09-09T08:07:00;8.85;;;2.00;;
49934;SDS011;39898;41.762;26.200;2022-09-09T08:09:27;5.68;;;1.23;;
49934;SDS011;39898;41.762;26.200;2022-09-09T08:14:22;2.55;;;1.25;;
49934;SDS011;39898;41.762;26.200;2022-09-09T08:16:49;2.60;;;1.33;;
49934;SDS011;39898;41.762;26.200;2022-09-09T08:19:20;2.92;;;1.48;;
49934;SDS011;39898;41.762;26.200;2022-09-09T08:21:47;5.10;;;1.45;;
49934;SDS011;39898;41.762;26.200;2022-09-09T08:26:42;6.97;;;1.60;;
49934;SDS011;39898;41.762;26.200;2022-09-09T08:29:12;6.15;;;2.08;;
49934;SDS011;39898;41.762;26.200;2022-09-09T08:31:41;4.45;;;1.80;;
49934;SDS011;39898;41.762;26.200;2022-09-09T08:34:20;3.55;;;1.92;;
49934;SDS011;39898;41.762;26.200;2022-09-09T08:36:48;5.27;;;1.97;;
49934;SDS011;39898;41.762;26.200;2022-09-09T08:39:17;8.90;;;1.88;;
49934;SDS011;39898;41.762;26.200;2022-09-09T08:47:53;5.38;;;1.80;;
49934;SDS011;39898;41.762;26.200;2022-09-09T08:50:28;7.40;;;2.22;;
49934;SDS011;39898;41.762;26.200;2022-09-09T08:55:39;5.65;;;1.95;;
49934;SDS011;39898;41.762;26.200;2022-09-09T08:58:17;4.18;;;2.15;;
49934;SDS011;39898;41.762;26.200;2022-09-09T09:11:39;9.48;;;2.22;;
49934;SDS011;39898;41.762;26.200;2022-09-09T09:19:30;8.30;;;2.20;;
49934;SDS011;39898;41.762;26.200;2022-09-09T09:24:52;9.05;;;2.53;;
49934;SDS011;39898;41.762;26.200;2022-09-09T09:30:25;7.32;;;2.42;;
49934;SDS011;39898;41.762;26.200;2022-09-09T09:35:31;5.50;;;2.20;;
49934;SDS011;39898;41.762;26.200;2022-09-09T09:38:01;6.70;;;2.03;;
49934;SDS011;39898;41.762;26.200;2022-09-09T09:40:58;5.55;;;2.38;;
49934;SDS011;39898;41.762;26.200;2022-09-09T09:43:27;4.63;;;2.42;;
49934;SDS011;39898;41.762;26.200;2022-09-09T09:45:56;5.43;;;1.92;;
49934;SDS011;39898;41.762;26.200;2022-09-09T09:48:42;4.53;;;2.13;;
49934;SDS011;39898;41.762;26.200;2022-09-09T09:51:09;3.70;;;2.25;;
49934;SDS011;39898;41.762;26.200;2022-09-09T09:53:40;5.53;;;1.92;;
49934;SDS011;39898;41.762;26.200;2022-09-09T09:56:08;3.40;;;1.83;;
49934;SDS011;39898;41.762;26.200;2022-09-09T10:03:58;5.22;;;1.90;;
49934;SDS011;39898;41.762;26.200;2022-09-09T10:06:34;4.25;;;2.42;;
49934;SDS011;39898;41.762;26.200;2022-09-09T10:09:04;4.07;;;1.98;;
49934;SDS011;39898;41.762;26.200;2022-09-09T10:17:39;4.25;;;2.42;;
49934;SDS011;39898;41.762;26.200;2022-09-09T10:20:42;2.70;;;1.83;;
49934;SDS011;39898;41.762;26.200;2022-09-09T10:28:30;6.00;;;1.63;;
49934;SDS011;39898;41.762;26.200;2022-09-09T10:36:20;6.32;;;2.38;;
49934;SDS011;39898;41.762;26.200;2022-09-09T10:38:48;7.97;;;2.47;;
49934;SDS011;39898;41.762;26.200;2022-09-09T10:49:22;3.95;;;1.85;;
49934;SDS011;39898;41.762;26.200;2022-09-09T10:52:11;7.57;;;1.90;;
49934;SDS011;39898;41.762;26.200;2022-09-09T10:57:22;9.10;;;1.88;;
49934;SDS011;39898;41.762;26.200;2022-09-09T10:59:56;6.88;;;1.80;;
49934;SDS011;39898;41.762;26.200;2022-09-09T11:02:29;9.52;;;2.20;;
49934;SDS011;39898;41.762;26.200;2022-09-09T11:05:02;7.63;;;2.28;;
49934;SDS011;39898;41.762;26.200;2022-09-09T11:07:47;8.55;;;2.33;;
49934;SDS011;39898;41.762;26.200;2022-09-09T11:13:17;6.35;;;2.10;;
49934;SDS011;39898;41.762;26.200;2022-09-09T11:15:53;11.00;;;3.58;;
49934;SDS011;39898;41.762;26.200;2022-09-09T11:18:26;3.28;;;2.20;;
49934;SDS011;39898;41.762;26.200;2022-09-09T11:20:59;3.17;;;1.80;;
49934;SDS011;39898;41.762;26.200;2022-09-09T11:23:42;8.32;;;2.08;;
49934;SDS011;39898;41.762;26.200;2022-09-09T11:26:17;2.60;;;1.98;;
49934;SDS011;39898;41.762;26.200;2022-09-09T11:40:02;18.98;;;2.40;;
49934;SDS011;39898;41.762;26.200;2022-09-09T11:42:40;4.65;;;1.98;;
49934;SDS011;39898;41.762;26.200;2022-09-09T11:45:19;3.05;;;2.00;;
49934;SDS011;39898;41.762;26.200;2022-09-09T11:52:47;5.90;;;2.20;;
49934;SDS011;39898;41.762;26.200;2022-09-09T11:55:29;2.83;;;1.73;;
49934;SDS011;39898;41.762;26.200;2022-09-09T11:57:58;6.05;;;1.75;;
49934;SDS011;39898;41.762;26.200;2022-09-09T12:03:50;4.72;;;2.00;;
49934;SDS011;39898;41.762;26.200;2022-09-09T12:08:55;5.50;;;1.90;;
49934;SDS011;39898;41.762;26.200;2022-09-09T12:11:43;8.32;;;1.70;;
49934;SDS011;39898;41.762;26.200;2022-09-09T12:14:34;2.75;;;1.50;;
49934;SDS011;39898;41.762;26.200;2022-09-09T12:17:20;3.67;;;1.70;;
49934;SDS011;39898;41.762;26.200;2022-09-09T12:19:59;2.83;;;1.65;;
49934;SDS011;39898;41.762;26.200;2022-09-09T12:25:18;5.55;;;2.10;;
49934;SDS011;39898;41.762;26.200;2022-09-09T12:33:45;2.50;;;1.60;;
49934;SDS011;39898;41.762;26.200;2022-09-09T12:36:15;8.85;;;1.92;;
49934;SDS011;39898;41.762;26.200;2022-09-09T12:38:45;2.55;;;1.48;;
49934;SDS011;39898;41.762;26.200;2022-09-09T12:41:31;2.00;;;1.80;;
49934;SDS011;39898;41.762;26.200;2022-09-09T12:44:08;5.10;;;1.70;;
49934;SDS011;39898;41.762;26.200;2022-09-09T12:46:38;12.45;;;2.65;;
49934;SDS011;39898;41.762;26.200;2022-09-09T12:51:53;9.98;;;2.20;;
49934;SDS011;39898;41.762;26.200;2022-09-09T12:54:22;5.10;;;2.55;;
49934;SDS011;39898;41.762;26.200;2022-09-09T12:56:49;5.07;;;1.88;;
49934;SDS011;39898;41.762;26.200;2022-09-09T12:59:24;12.25;;;2.85;;
49934;SDS011;39898;41.762;26.200;2022-09-09T13:01:57;6.22;;;2.30;;
49934;SDS011;39898;41.762;26.200;2022-09-09T13:04:24;5.45;;;2.05;;
49934;SDS011;39898;41.762;26.200;2022-09-09T13:06:51;7.38;;;3.53;;
49934;SDS011;39898;41.762;26.200;2022-09-09T13:09:19;4.45;;;2.45;;
49934;SDS011;39898;41.762;26.200;2022-09-09T13:11:50;3.80;;;2.00;;
49934;SDS011;39898;41.762;26.200;2022-09-09T13:14:29;5.22;;;3.80;;
49934;SDS011;39898;41.762;26.200;2022-09-09T13:17:02;5.30;;;1.60;;
49934;SDS011;39898;41.762;26.200;2022-09-09T13:19:32;5.43;;;1.75;;
49934;SDS011;39898;41.762;26.200;2022-09-09T13:22:13;4.55;;;3.28;;
49934;SDS011;39898;41.762;26.200;2022-09-09T13:24:45;3.78;;;2.20;;
49934;SDS011;39898;41.762;26.200;2022-09-09T13:27:28;6.63;;;1.98;;
49934;SDS011;39898;41.762;26.200;2022-09-09T13:29:57;4.43;;;2.42;;
49934;SDS011;39898;41.762;26.200;2022-09-09T13:32:24;5.43;;;2.20;;
49934;SDS011;39898;41.762;26.200;2022-09-09T13:34:56;3.22;;;2.10;;
49934;SDS011;39898;41.762;26.200;2022-09-09T13:37:33;2.60;;;1.80;;
49934;SDS011;39898;41.762;26.200;2022-09-09T13:40:03;7.07;;;2.17;;
49934;SDS011;39898;41.762;26.200;2022-09-09T13:42:33;5.18;;;2.47;;
49934;SDS011;39898;41.762;26.200;2022-09-09T13:45:18;4.57;;;2.63;;
49934;SDS011;39898;41.762;26.200;2022-09-09T13:47:47;6.78;;;2.00;;
49934;SDS011;39898;41.762;26.200;2022-09-09T13:52:51;6.13;;;2.65;;
49934;SDS011;39898;41.762;26.200;2022-09-09T13:55:20;5.95;;;2.15;;
49934;SDS011;39898;41.762;26.200;2022-09-09T13:57:52;5.07;;;1.73;;
49934;SDS011;39898;41.762;26.200;2022-09-09T14:00:21;5.03;;;1.50;;
49934;SDS011;39898;41.762;26.200;2022-09-09T14:02:50;6.22;;;2.08;;
49934;SDS011;39898;41.762;26.200;2022-09-09T14:05:17;4.47;;;2.10;;
49934;SDS011;39898;41.762;26.200;2022-09-09T14:10:15;5.47;;;2.10;;
49934;SDS011;39898;41.762;26.200;2022-09-09T14:15:10;4.65;;;2.03;;
49934;SDS011;39898;41.762;26.200;2022-09-09T14:17:38;10.77;;;1.48;;
49934;SDS011;39898;41.762;26.200;2022-09-09T14:20:06;3.03;;;1.60;;
49934;SDS011;39898;41.762;26.200;2022-09-09T14:22:36;7.40;;;1.70;;
49934;SDS011;39898;41.762;26.200;2022-09-09T14:25:03;4.97;;;1.90;;
49934;SDS011;39898;41.762;26.200;2022-09-09T14:29:58;7.20;;;1.80;;
49934;SDS011;39898;41.762;26.200;2022-09-09T14:32:27;3.13;;;1.83;;
49934;SDS011;39898;41.762;26.200;2022-09-09T14:34:53;10.32;;;2.10;;
49934;SDS011;39898;41.762;26.200;2022-09-09T14:37:20;3.35;;;1.70;;
49934;SDS011;39898;41.762;26.200;2022-09-09T14:39:47;6.18;;;1.70;;
49934;SDS011;39898;41.762;26.200;2022-09-09T14:42:17;2.13;;;1.40;;
49934;SDS011;39898;41.762;26.200;2022-09-09T14:44:47;5.63;;;1.55;;
49934;SDS011;39898;41.762;26.200;2022-09-09T14:47:14;4.57;;;1.60;;
49934;SDS011;39898;41.762;26.200;2022-09-09T14:49:41;1.98;;;1.40;;
49934;SDS011;39898;41.762;26.200;2022-09-09T14:52:10;8.70;;;1.48;;
49934;SDS011;39898;41.762;26.200;2022-09-09T14:54:37;7.63;;;1.60;;
49934;SDS011;39898;41.762;26.200;2022-09-09T14:57:04;2.55;;;1.90;;
49934;SDS011;39898;41.762;26.200;2022-09-09T14:59:31;6.90;;;2.03;;
49934;SDS011;39898;41.762;26.200;2022-09-09T15:01:57;5.85;;;1.65;;
49934;SDS011;39898;41.762;26.200;2022-09-09T15:04:27;2.15;;;1.58;;
49934;SDS011;39898;41.762;26.200;2022-09-09T15:06:54;4.00;;;1.65;;
49934;SDS011;39898;41.762;26.200;2022-09-09T15:09:20;5.15;;;1.70;;
49934;SDS011;39898;41.762;26.200;2022-09-09T15:11:48;7.72;;;1.77;;
49934;SDS011;39898;41.762;26.200;2022-09-09T15:14:15;3.10;;;1.60;;
49934;SDS011;39898;41.762;26.200;2022-09-09T15:16:43;3.17;;;1.75;;
49934;SDS011;39898;41.762;26.200;2022-09-09T15:19:10;4.88;;;1.70;;
49934;SDS011;39898;41.762;26.200;2022-09-09T15:21:37;3.95;;;1.58;;
49934;SDS011;39898;41.762;26.200;2022-09-09T15:24:05;5.30;;;1.42;;
49934;SDS011;39898;41.762;26.200;2022-09-09T15:26:34;4.07;;;1.60;;
49934;SDS011;39898;41.762;26.200;2022-09-09T15:29:04;5.10;;;1.48;;
49934;SDS011;39898;41.762;26.200;2022-09-09T15:31:31;7.68;;;1.52;;
49934;SDS011;39898;41.762;26.200;2022-09-09T15:33:59;14.35;;;2.28;;
49934;SDS011;39898;41.762;26.200;2022-09-09T15:38:56;4.90;;;1.60;;
49934;SDS011;39898;41.762;26.200;2022-09-09T15:41:23;3.30;;;1.38;;
49934;SDS011;39898;41.762;26.200;2022-09-09T15:43:50;4.70;;;1.60;;
49934;SDS011;39898;41.762;26.200;2022-09-09T15:47:01;5.30;;;1.90;;
49934;SDS011;39898;41.762;26.200;2022-09-09T15:49:15;4.35;;;1.70;;
49934;SDS011;39898;41.762;26.200;2022-09-09T15:51:45;8.07;;;1.70;;
49934;SDS011;39898;41.762;26.200;2022-09-09T15:54:14;9.73;;;2.08;;
49934;SDS011;39898;41.762;26.200;2022-09-09T15:56:49;5.88;;;1.85;;
49934;SDS011;39898;41.762;26.200;2022-09-09T15:59:19;10.48;;;2.08;;
49934;SDS011;39898;41.762;26.200;2022-09-09T16:04:13;8.20;;;1.85;;
49934;SDS011;39898;41.762;26.200;2022-09-09T16:06:46;10.60;;;2.13;;
49934;SDS011;39898;41.762;26.200;2022-09-09T16:09:13;4.13;;;2.38;;
49934;SDS011;39898;41.762;26.200;2022-09-09T16:11:39;14.65;;;2.42;;
49934;SDS011;39898;41.762;26.200;2022-09-09T16:14:06;15.65;;;2.63;;
49934;SDS011;39898;41.762;26.200;2022-09-09T16:16:34;12.65;;;3.60;;
49934;SDS011;39898;41.762;26.200;2022-09-09T16:19:08;10.75;;;2.97;;
49934;SDS011;39898;41.762;26.200;2022-09-09T16:21:38;8.05;;;2.88;;
49934;SDS011;39898;41.762;26.200;2022-09-09T16:24:09;20.52;;;3.50;;
49934;SDS011;39898;41.762;26.200;2022-09-09T16:26:39;10.77;;;2.75;;
49934;SDS011;39898;41.762;26.200;2022-09-09T16:29:11;10.30;;;2.55;;
49934;SDS011;39898;41.762;26.200;2022-09-09T16:31:39;7.47;;;2.53;;
49934;SDS011;39898;41.762;26.200;2022-09-09T16:34:07;4.75;;;2.20;;
49934;SDS011;39898;41.762;26.200;2022-09-09T16:36:35;8.23;;;2.08;;
49934;SDS011;39898;41.762;26.200;2022-09-09T16:39:04;8.93;;;2.45;;
49934;SDS011;39898;41.762;26.200;2022-09-09T16:41:32;6.82;;;2.60;;
49934;SDS011;39898;41.762;26.200;2022-09-09T16:44:00;5.38;;;2.45;;
49934;SDS011;39898;41.762;26.200;2022-09-09T16:46:32;4.88;;;2.67;;
49934;SDS011;39898;41.762;26.200;2022-09-09T16:49:02;10.40;;;3.20;;
49934;SDS011;39898;41.762;26.200;2022-09-09T16:51:31;10.57;;;2.80;;
49934;SDS011;39898;41.762;26.200;2022-09-09T16:53:59;7.97;;;2.70;;
49934;SDS011;39898;41.762;26.200;2022-09-09T16:56:29;4.60;;;2.10;;
49934;SDS011;39898;41.762;26.200;2022-09-09T16:58:58;6.60;;;2.63;;
49934;SDS011;39898;41.762;26.200;2022-09-09T17:01:27;14.32;;;3.22;;
49934;SDS011;39898;41.762;26.200;2022-09-09T17:03:57;22.85;;;5.13;;
49934;SDS011;39898;41.762;26.200;2022-09-09T17:06:27;17.95;;;4.75;;
49934;SDS011;39898;41.762;26.200;2022-09-09T17:08:59;22.95;;;4.07;;
49934;SDS011;39898;41.762;26.200;2022-09-09T17:11:27;22.23;;;7.40;;
49934;SDS011;39898;41.762;26.200;2022-09-09T17:13:56;27.75;;;9.00;;
49934;SDS011;39898;41.762;26.200;2022-09-09T17:16:25;29.38;;;8.07;;
49934;SDS011;39898;41.762;26.200;2022-09-09T17:18:54;43.42;;;10.52;;
49934;SDS011;39898;41.762;26.200;2022-09-09T17:23:49;71.00;;;23.00;;
49934;SDS011;39898;41.762;26.200;2022-09-09T17:26:18;41.33;;;13.80;;
49934;SDS011;39898;41.762;26.200;2022-09-09T17:28:46;25.52;;;5.50;;
49934;SDS011;39898;41.762;26.200;2022-09-09T17:31:14;21.25;;;4.18;;
49934;SDS011;39898;41.762;26.200;2022-09-09T17:33:45;34.50;;;5.60;;
49934;SDS011;39898;41.762;26.200;2022-09-09T17:36:18;19.17;;;3.83;;
49934;SDS011;39898;41.762;26.200;2022-09-09T17:38:48;18.80;;;4.47;;
49934;SDS011;39898;41.762;26.200;2022-09-09T17:41:23;20.98;;;5.95;;
49934;SDS011;39898;41.762;26.200;2022-09-09T17:43:52;15.48;;;3.80;;
49934;SDS011;39898;41.762;26.200;2022-09-09T17:46:32;15.43;;;3.70;;